Niagara Falls International Airport
KIAG : rendu visible

Aérodrome :











RETROUVEZ-NOUS SUR...

 
LOGIN :

S'inscrire | Disclaimer

   EN    FR    IT 

 









Légende :    VFR   VFR Marginal   IFR   IFR Intensif   IFR Très Intensif
Visi : 
Plafond : 
>= 8 km
>= 3000ft
5 à 8 km
1000 à 3000 ft
1500m à 5 km
500 à 1000 ft
800 à 1500m
200 à 500 ft
< 800m
< 200 ft
Symboles :   Orages  Brouillard  Fortes neiges  Fortes précipitations  Vent > 20 kt






- Altitude de l'aérodrome : 589 ft
- Code IATA : IAG


KIAG - Niagara Falls International

DERNIER METAR :
  • 212353Z 04005KT 10SM CLR 12/04 A3041 RMK AO2 SLP306 T01220044 10200 20122 $

METARs EXPIRÉS :
  • 212253Z 05006KT 10SM CLR 16/05 A3041 RMK AO2 SLP305 T01560050 $
  • 212231Z 03010KT 10SM CLR 17/05 A3041 RMK AO2 T01670050 $
  • 212153Z 05011KT 10SM CLR 18/04 A3041 RMK AO2 SLP304 T01780044 $

TAF KIAG
Valide du 22 à 00h jusqu'au 23 à 00h UTC


212338Z 2200/2224 06005KT P6SM SCT250
FM220300 13004KT P6SM SCT250
FM220900 17005KT P6SM SCT250
FM221400 25004KT P6SM SCT250
FIR KZOB / Amérique du Nord



MET'MAP, la Météo Aéronautique d'un coup d'oeil ! - Copyright ORBIFLY Décembre 2007 - Disclaimer

ORBIFLY MET'MAP TEAM :

Programmation & Développement : Alexandra Zaïnal
Sur une idée originale de : Baudouin d'Aumeries
Assistance à la programmation : Marc-Olivier Méhu
Soutien technique & logistique : Manuel Goepfert

Contact : metmap@orbifly.com




SOURCES & CREDITS :

   NOAA       Earth
Advisory